Time;durP1;ratioP1;P1;durP2;ratioP2;P2;SDS_P1;SDS_P2;PMS_P1;PMS_P2;Temp;Humidity;BMP_temperature;BMP_pressure;BME280_temperature;BME280_humidity;BME280_pressure;Samples;Min_cycle;Max_cycle;Signal;HPM_P1;HPM_P2
2023/12/09 00:01:31;;;;;;;50.80;22.42;;;7.80;99.90;;;;;;5093171;27;20027;-78
2023/12/09 00:03:57;;;;;;;50.83;22.27;;;7.80;99.90;;;;;;5104300;27;20040;-78
2023/12/09 00:06:23;;;;;;;54.83;22.70;;;7.80;99.90;;;;;;5109116;27;20078;-78
2023/12/09 00:08:50;;;;;;;47.65;21.33;;;8.00;99.90;;;;;;5118422;27;20042;-78
2023/12/09 00:11:16;;;;;;;46.70;21.73;;;7.80;99.90;;;;;;5103997;27;20085;-75
2023/12/09 00:13:42;;;;;;;47.10;20.75;;;8.00;99.90;;;;;;5107203;27;20067;-75
2023/12/09 00:16:08;;;;;;;57.13;22.88;;;7.80;99.90;;;;;;5096111;27;20076;-75
2023/12/09 00:18:34;;;;;;;46.95;20.90;;;7.90;99.90;;;;;;5109942;27;20047;-75
2023/12/09 00:20:59;;;;;;;49.92;20.92;;;8.00;99.90;;;;;;5123526;27;21402;-75
2023/12/09 00:23:25;;;;;;;45.35;21.60;;;7.90;99.90;;;;;;5112135;27;20500;-75
2023/12/09 00:25:51;;;;;;;41.25;19.42;;;7.90;99.90;;;;;;5107209;27;20095;-75
2023/12/09 00:28:16;;;;;;;49.20;21.98;;;7.90;99.90;;;;;;5113514;27;20047;-73
2023/12/09 00:30:42;;;;;;;43.50;20.45;;;7.90;99.90;;;;;;5109986;27;20126;-73
2023/12/09 00:33:08;;;;;;;42.15;20.27;;;8.00;99.90;;;;;;5114774;27;20098;-73
2023/12/09 00:35:33;;;;;;;39.97;19.45;;;7.80;99.90;;;;;;5090635;28;20047;-74
2023/12/09 00:37:59;;;;;;;34.25;18.65;;;7.80;99.90;;;;;;5094618;28;20043;-74
2023/12/09 00:40:25;;;;;;;44.63;20.60;;;8.00;99.90;;;;;;5111733;27;20039;-78
2023/12/09 00:42:50;;;;;;;48.83;20.73;;;7.80;99.90;;;;;;5091208;28;20040;-78
2023/12/09 00:45:16;;;;;;;53.60;21.70;;;8.00;99.90;;;;;;5112054;27;20031;-79
2023/12/09 00:47:42;;;;;;;44.97;19.98;;;8.00;99.90;;;;;;5112276;27;20102;-78
2023/12/09 00:50:08;;;;;;;37.88;19.20;;;7.90;99.90;;;;;;5076967;28;20118;-78
2023/12/09 00:52:34;;;;;;;34.90;17.65;;;8.00;99.90;;;;;;5079530;28;20708;-78
2023/12/09 00:55:00;;;;;;;32.85;17.02;;;8.00;99.90;;;;;;5088549;28;20119;-78
2023/12/09 00:57:26;;;;;;;31.17;16.45;;;7.80;99.90;;;;;;5113221;27;20042;-78
2023/12/09 00:59:52;;;;;;;39.58;18.52;;;7.90;99.90;;;;;;5116375;27;20043;-79
2023/12/09 01:02:18;;;;;;;41.03;18.25;;;7.80;99.90;;;;;;5079715;28;20077;-78
2023/12/09 01:04:44;;;;;;;37.15;19.10;;;8.00;99.90;;;;;;5112866;27;20245;-79
2023/12/09 01:07:10;;;;;;;50.72;19.73;;;8.00;99.90;;;;;;5106963;27;20043;-77
2023/12/09 01:09:35;;;;;;;34.15;17.42;;;7.90;99.90;;;;;;5108405;27;20063;-77
2023/12/09 01:12:01;;;;;;;48.65;19.58;;;7.90;99.90;;;;;;5088116;28;20062;-78
2023/12/09 01:14:27;;;;;;;41.70;19.45;;;8.00;99.90;;;;;;5112094;27;20043;-77
2023/12/09 01:16:53;;;;;;;39.38;18.90;;;7.80;99.90;;;;;;5111066;27;20475;-78
2023/12/09 01:19:19;;;;;;;51.97;19.75;;;8.00;99.90;;;;;;5108239;27;20042;-78
2023/12/09 01:21:44;;;;;;;51.63;20.23;;;8.00;99.90;;;;;;5110941;28;20044;-77
2023/12/09 01:24:10;;;;;;;45.35;19.92;;;7.90;99.90;;;;;;5109949;28;20049;-77
2023/12/09 01:26:36;;;;;;;43.92;18.75;;;8.10;99.90;;;;;;5106027;28;20425;-77
2023/12/09 01:29:03;;;;;;;41.17;18.77;;;7.90;99.90;;;;;;5089960;28;20040;-77
2023/12/09 01:31:30;;;;;;;43.08;19.63;;;8.10;99.90;;;;;;5097208;28;20135;-78
2023/12/09 01:33:56;;;;;;;41.85;17.75;;;8.00;99.90;;;;;;5107358;28;20095;-77
2023/12/09 01:36:21;;;;;;;40.20;17.90;;;8.10;99.90;;;;;;5089922;28;20122;-78
2023/12/09 01:38:47;;;;;;;45.78;19.50;;;8.00;99.90;;;;;;5074417;28;20076;-77
2023/12/09 01:41:13;;;;;;;55.38;20.77;;;8.10;99.90;;;;;;5077261;28;20064;-78
2023/12/09 01:43:38;;;;;;;42.40;18.35;;;8.00;99.90;;;;;;5095038;28;20080;-78
2023/12/09 01:46:11;;;;;;;42.08;17.85;;;8.00;99.90;;;;;;5107171;28;20054;-78
2023/12/09 01:48:38;;;;;;;41.97;18.83;;;8.10;99.90;;;;;;5114737;28;20096;-78
2023/12/09 01:51:04;;;;;;;;;;;8.10;99.90;;;;;;5095007;28;20131;-78
2023/12/09 01:53:30;;;;;;;41.92;18.73;;;8.10;99.90;;;;;;5111057;28;19930;-78
2023/12/09 01:55:59;;;;;;;44.30;19.63;;;8.00;99.90;;;;;;5109670;28;20044;-80
2023/12/09 01:58:26;;;;;;;54.67;19.67;;;8.10;99.90;;;;;;5109594;28;20039;-78
2023/12/09 02:00:52;;;;;;;48.10;18.38;;;8.30;99.90;;;;;;5091774;28;20031;-79
2023/12/09 02:03:18;;;;;;;38.70;16.75;;;8.10;99.90;;;;;;5096510;28;20457;-79
2023/12/09 02:05:45;;;;;;;45.72;17.33;;;8.20;99.90;;;;;;5093837;28;20126;-79
2023/12/09 02:08:10;;;;;;;41.55;16.40;;;8.10;99.90;;;;;;5115938;27;20047;-79
2023/12/09 02:10:37;;;;;;;38.85;17.13;;;8.10;99.90;;;;;;5116033;27;20059;-79
2023/12/09 02:13:15;;;;;;;;;;;8.20;99.90;;;;;;5116386;27;20039;-79
2023/12/09 02:16:19;;;;;;;36.60;16.05;;;8.30;99.90;;;;;;5125090;27;19926;-79
2023/12/09 02:18:45;;;;;;;34.92;15.82;;;8.30;99.90;;;;;;5048856;28;20033;-79
2023/12/09 02:21:11;;;;;;;37.00;15.23;;;8.20;99.90;;;;;;5101399;27;20062;-79
2023/12/09 02:23:37;;;;;;;44.92;16.58;;;8.30;99.90;;;;;;5084166;28;20044;-79
2023/12/09 02:26:09;;;;;;;43.75;17.50;;;8.10;99.90;;;;;;5115935;27;20055;-79
2023/12/09 02:28:40;;;;;;;34.08;16.27;;;8.20;99.90;;;;;;5110659;27;20051;-79
2023/12/09 02:31:13;;;;;;;40.90;16.40;;;8.30;99.90;;;;;;5115322;27;20047;-79
2023/12/09 02:33:43;;;;;;;31.40;14.88;;;8.30;99.90;;;;;;5110461;27;20056;-79
2023/12/09 02:36:17;;;;;;;44.45;16.88;;;8.20;99.90;;;;;;5105939;28;20044;-79
2023/12/09 02:38:43;;;;;;;36.50;16.80;;;8.20;99.90;;;;;;5120255;27;20422;-79
2023/12/09 02:41:10;;;;;;;41.80;16.08;;;8.20;99.90;;;;;;5097220;27;20040;-79
2023/12/09 02:43:36;;;;;;;41.08;16.77;;;8.30;99.90;;;;;;5119908;27;20048;-79
2023/12/09 02:46:02;;;;;;;;;;;8.20;99.90;;;;;;5115688;27;20043;-79
2023/12/09 02:48:28;;;;;;;34.00;16.00;;;8.30;99.90;;;;;;5108568;27;19923;-79
2023/12/09 02:50:54;;;;;;;41.35;16.15;;;8.20;99.90;;;;;;5090477;28;20050;-75
2023/12/09 02:53:20;;;;;;;38.83;17.25;;;8.20;99.90;;;;;;5111189;27;20416;-79
2023/12/09 02:55:45;;;;;;;42.50;16.00;;;8.20;99.90;;;;;;5078555;27;20493;-80
2023/12/09 02:58:12;;;;;;;33.25;15.65;;;8.20;99.90;;;;;;5121202;27;20042;-80
2023/12/09 03:00:37;;;;;;;;;;;8.20;99.90;;;;;;5120118;27;20449;-79
2023/12/09 03:03:03;;;;;;;32.30;15.15;;;8.20;99.90;;;;;;5111172;27;19959;-79
2023/12/09 03:05:29;;;;;;;43.88;15.90;;;8.10;99.90;;;;;;5123420;27;20031;-80
2023/12/09 03:07:54;;;;;;;32.95;15.27;;;8.10;99.90;;;;;;5090825;28;20073;-79
2023/12/09 03:10:20;;;;;;;37.70;15.50;;;8.20;99.90;;;;;;5113682;27;20047;-81
2023/12/09 03:12:46;;;;;;;28.65;14.32;;;8.10;99.90;;;;;;5112028;27;20040;-80
2023/12/09 03:15:11;;;;;;;33.10;13.98;;;8.10;99.90;;;;;;5117668;27;20139;-80
2023/12/09 03:17:37;;;;;;;29.75;13.65;;;8.20;99.90;;;;;;5104032;27;20040;-79
2023/12/09 03:20:06;;;;;;;37.42;14.38;;;8.20;99.90;;;;;;5115313;27;20035;-80
2023/12/09 03:22:32;;;;;;;36.00;14.93;;;8.10;99.90;;;;;;5115021;27;20123;-79
2023/12/09 03:24:57;;;;;;;40.17;15.10;;;8.20;99.90;;;;;;5110973;27;20122;-79
2023/12/09 03:27:23;;;;;;;39.10;15.85;;;8.10;99.90;;;;;;5113558;27;20039;-79
2023/12/09 03:29:49;;;;;;;34.88;13.40;;;8.10;99.90;;;;;;5110890;27;20498;-80
2023/12/09 03:32:14;;;;;;;32.78;13.77;;;8.10;99.90;;;;;;5094845;27;20117;-79
2023/12/09 03:34:42;;;;;;;32.25;13.23;;;8.00;99.90;;;;;;5091404;28;20507;-79
2023/12/09 03:37:08;;;;;;;39.33;13.73;;;8.00;99.90;;;;;;5109731;27;20115;-77
2023/12/09 03:39:34;;;;;;;28.65;12.75;;;8.00;99.90;;;;;;5113635;27;20039;-77
2023/12/09 03:42:00;;;;;;;32.78;13.32;;;8.00;99.90;;;;;;5110321;27;20054;-77
2023/12/09 03:44:26;;;;;;;30.10;12.98;;;7.90;99.90;;;;;;5109361;27;20036;-77
2023/12/09 03:46:51;;;;;;;35.78;13.30;;;7.90;99.90;;;;;;5106011;27;20382;-76
2023/12/09 03:49:17;;;;;;;25.23;11.80;;;7.90;99.90;;;;;;5095731;28;20044;-79
2023/12/09 03:51:43;;;;;;;26.92;12.27;;;7.90;99.90;;;;;;5097839;27;20105;-78
2023/12/09 03:54:08;;;;;;;28.55;13.30;;;7.80;99.90;;;;;;5077679;27;20142;-77
2023/12/09 03:56:34;;;;;;;29.63;13.00;;;7.90;99.90;;;;;;5097420;27;20053;-77
2023/12/09 03:59:00;;;;;;;26.73;12.02;;;7.90;99.90;;;;;;5106929;27;20031;-77
2023/12/09 04:01:26;;;;;;;26.35;11.45;;;7.90;99.90;;;;;;5111136;27;20043;-77
2023/12/09 04:03:51;;;;;;;33.72;11.90;;;7.90;99.90;;;;;;5108060;27;20092;-77
2023/12/09 04:06:17;;;;;;;28.77;12.07;;;7.90;99.90;;;;;;5093923;27;20150;-77
2023/12/09 04:08:43;;;;;;;31.48;12.82;;;7.90;99.90;;;;;;5102691;27;20036;-77
2023/12/09 04:11:09;;;;;;;29.50;12.27;;;7.80;99.90;;;;;;5090502;28;20106;-77
2023/12/09 04:13:34;;;;;;;33.65;13.50;;;7.80;99.90;;;;;;5089025;28;20039;-77
2023/12/09 04:16:01;;;;;;;36.25;14.00;;;7.90;99.90;;;;;;5111596;27;20100;-77
2023/12/09 04:18:26;;;;;;;;;;;7.90;99.90;;;;;;5096384;27;20047;-76
2023/12/09 04:20:52;;;;;;;30.83;12.88;;;7.90;99.90;;;;;;5110084;27;19915;-77
2023/12/09 04:23:18;;;;;;;34.72;13.90;;;7.90;99.90;;;;;;5092390;27;20516;-77
2023/12/09 04:25:44;;;;;;;34.17;14.10;;;7.90;99.90;;;;;;5115654;27;20052;-77
2023/12/09 04:28:11;;;;;;;35.30;13.43;;;7.90;99.90;;;;;;5074508;27;20047;-77
2023/12/09 04:30:37;;;;;;;34.22;13.88;;;7.90;99.90;;;;;;5115752;27;20101;-76
2023/12/09 04:33:04;;;;;;;31.45;13.13;;;7.90;99.90;;;;;;5107953;27;20131;-77
2023/12/09 04:35:30;;;;;;;29.90;12.15;;;7.90;99.90;;;;;;5109113;27;20096;-76
2023/12/09 04:37:55;;;;;;;27.50;12.80;;;7.90;99.90;;;;;;5119933;27;20043;-76
2023/12/09 04:40:21;;;;;;;29.73;12.27;;;7.90;99.90;;;;;;5091391;28;20059;-76
2023/12/09 04:42:47;;;;;;;26.67;11.60;;;7.80;99.90;;;;;;5112107;28;20116;-77
2023/12/09 04:45:13;;;;;;;33.03;13.07;;;7.80;99.90;;;;;;5101370;27;20065;-76
2023/12/09 04:47:39;;;;;;;26.92;11.50;;;7.90;99.90;;;;;;5106898;28;20126;-76
2023/12/09 04:50:08;;;;;;;28.98;11.18;;;7.90;99.90;;;;;;5091984;28;20406;-76
2023/12/09 04:52:35;;;;;;;33.10;12.40;;;7.80;99.90;;;;;;5113586;27;20088;-76
2023/12/09 04:55:01;;;;;;;30.10;12.20;;;7.80;99.90;;;;;;5092230;28;20441;-76
2023/12/09 04:57:27;;;;;;;23.83;11.48;;;7.90;99.90;;;;;;5108070;27;20043;-76
2023/12/09 04:59:53;;;;;;;28.00;12.05;;;7.80;99.90;;;;;;5111434;27;20039;-76
2023/12/09 05:02:20;;;;;;;25.90;11.63;;;7.80;99.90;;;;;;5109982;27;20177;-76
2023/12/09 05:04:46;;;;;;;31.55;11.73;;;7.80;99.90;;;;;;5096071;28;20516;-76
2023/12/09 05:07:12;;;;;;;33.70;12.68;;;7.80;99.90;;;;;;5107640;28;20057;-76
2023/12/09 05:09:38;;;;;;;34.22;13.05;;;7.80;99.90;;;;;;5111018;27;20035;-76
2023/12/09 05:12:04;;;;;;;30.80;12.13;;;7.90;99.90;;;;;;5087804;28;20051;-76
2023/12/09 05:14:29;;;;;;;26.58;12.02;;;7.90;99.90;;;;;;5086631;28;20539;-77
2023/12/09 05:16:55;;;;;;;30.45;12.88;;;7.80;99.90;;;;;;5117218;27;20036;-76
2023/12/09 05:19:22;;;;;;;27.13;11.30;;;7.80;99.90;;;;;;5097674;28;20043;-77
2023/12/09 05:21:48;;;;;;;26.98;10.60;;;7.80;99.90;;;;;;5114949;27;20092;-77
2023/12/09 05:24:13;;;;;;;30.13;10.98;;;7.80;99.90;;;;;;5116617;28;20071;-77
2023/12/09 05:26:39;;;;;;;20.77;9.90;;;7.80;99.90;;;;;;5111775;27;20086;-76
2023/12/09 05:29:06;;;;;;;25.27;10.68;;;7.80;99.90;;;;;;5106243;28;20047;-76
2023/12/09 05:31:32;;;;;;;26.92;9.98;;;7.90;99.90;;;;;;5105537;28;20052;-78
2023/12/09 05:33:58;;;;;;;22.10;9.95;;;7.80;99.90;;;;;;5090485;28;20083;-77
2023/12/09 05:36:24;;;;;;;31.67;11.13;;;7.80;99.90;;;;;;5098334;28;20051;-77
2023/12/09 05:38:49;;;;;;;24.90;9.63;;;7.80;99.90;;;;;;5119848;28;20039;-77
2023/12/09 05:41:15;;;;;;;21.42;9.30;;;7.80;99.90;;;;;;5088950;28;20467;-78
2023/12/09 05:43:43;;;;;;;26.63;10.60;;;7.90;99.90;;;;;;5096868;28;20130;-77
2023/12/09 05:46:16;;;;;;;32.97;10.80;;;7.80;99.90;;;;;;5098200;27;20046;-77
2023/12/09 05:48:41;;;;;;;31.20;10.38;;;7.90;99.90;;;;;;5127408;27;20573;-77
2023/12/09 05:51:09;;;;;;;25.52;9.90;;;7.80;99.90;;;;;;5103134;27;20142;-78
2023/12/09 05:53:35;;;;;;;23.67;10.00;;;7.80;99.90;;;;;;5112813;27;20062;-77
2023/12/09 05:56:01;;;;;;;24.17;9.80;;;7.80;99.90;;;;;;5112927;27;20044;-77
2023/12/09 05:58:26;;;;;;;26.63;9.85;;;7.80;99.90;;;;;;5101540;27;20051;-78
2023/12/09 06:00:52;;;;;;;24.52;10.13;;;7.80;99.90;;;;;;5094592;27;20528;-78
2023/12/09 06:03:18;;;;;;;33.38;11.70;;;7.80;99.90;;;;;;5100314;28;20032;-78
2023/12/09 06:05:43;;;;;;;35.45;10.82;;;7.80;99.90;;;;;;5114146;27;20759;-77
2023/12/09 06:08:09;;;;;;;23.13;10.93;;;7.90;99.90;;;;;;5110200;27;20484;-77
2023/12/09 06:10:35;;;;;;;23.77;9.52;;;7.80;99.90;;;;;;5098671;27;20046;-77
2023/12/09 06:13:00;;;;;;;27.52;9.93;;;7.80;99.90;;;;;;5093340;27;20044;-78
2023/12/09 06:15:26;;;;;;;21.63;9.25;;;7.80;99.90;;;;;;5113436;27;20255;-77
2023/12/09 06:17:52;;;;;;;34.38;11.80;;;7.80;99.90;;;;;;5115104;27;20479;-77
2023/12/09 06:20:18;;;;;;;28.13;9.88;;;7.80;99.90;;;;;;5110766;27;20085;-78
2023/12/09 06:22:43;;;;;;;24.00;8.98;;;7.80;99.90;;;;;;5118924;27;20043;-78
2023/12/09 06:25:09;;;;;;;27.98;9.68;;;7.80;99.90;;;;;;5113943;27;20057;-78
2023/12/09 06:27:36;;;;;;;27.88;10.05;;;7.80;99.90;;;;;;5118147;27;20039;-78
2023/12/09 06:30:03;;;;;;;21.45;8.48;;;7.80;99.90;;;;;;5100074;27;20051;-78
2023/12/09 06:32:28;;;;;;;28.98;9.93;;;7.80;99.90;;;;;;5110597;27;20044;-78
2023/12/09 06:34:54;;;;;;;26.23;9.23;;;7.80;99.90;;;;;;5084847;28;20395;-78
2023/12/09 06:37:20;;;;;;;26.60;9.15;;;7.80;99.90;;;;;;5115785;27;20028;-77
2023/12/09 06:39:45;;;;;;;29.60;9.20;;;7.80;99.90;;;;;;5090730;28;20066;-77
2023/12/09 06:42:11;;;;;;;27.00;9.75;;;7.80;99.90;;;;;;5113164;27;20046;-77
2023/12/09 06:44:37;;;;;;;28.42;9.30;;;7.90;99.90;;;;;;5110700;27;20040;-78
2023/12/09 06:47:03;;;;;;;25.73;8.65;;;7.80;99.90;;;;;;5107973;27;20046;-77
2023/12/09 06:49:28;;;;;;;26.65;8.48;;;7.80;99.90;;;;;;5109809;27;20085;-77
2023/12/09 06:51:54;;;;;;;17.92;7.78;;;7.80;99.90;;;;;;5094235;27;20039;-77
2023/12/09 06:54:19;;;;;;;27.92;8.27;;;7.70;99.90;;;;;;5097433;27;20067;-77
2023/12/09 06:56:45;;;;;;;25.92;9.60;;;7.80;99.90;;;;;;5109471;27;20389;-77
2023/12/09 06:59:11;;;;;;;22.90;9.18;;;7.70;99.90;;;;;;5084877;27;20037;-77
2023/12/09 07:01:37;;;;;;;29.85;10.10;;;7.70;99.90;;;;;;5092222;27;20085;-76
2023/12/09 07:04:03;;;;;;;25.38;8.27;;;7.70;99.90;;;;;;5091146;28;20031;-78
2023/12/09 07:06:29;;;;;;;28.70;9.10;;;7.70;99.90;;;;;;5070801;28;20463;-79
2023/12/09 07:08:57;;;;;;;;;;;7.70;99.90;;;;;;5110399;27;20040;-79
2023/12/09 07:11:23;;;;;;;;;;;7.60;99.90;;;;;;5088902;27;19919;-79
2023/12/09 07:13:49;;;;;;;24.30;8.50;;;7.60;99.90;;;;;;5094102;28;19915;-76
2023/12/09 07:16:15;;;;;;;;;;;7.70;99.90;;;;;;5090469;28;20044;-77
2023/12/09 07:18:46;;;;;;;24.88;9.32;;;7.60;99.90;;;;;;5094500;28;19927;-76
2023/12/09 07:21:12;;;;;;;24.42;9.32;;;7.60;99.90;;;;;;5111799;27;20043;-76
2023/12/09 07:23:38;;;;;;;19.98;8.57;;;7.70;99.90;;;;;;5075083;28;20044;-77
2023/12/09 07:26:04;;;;;;;21.95;8.75;;;7.60;99.90;;;;;;5108302;27;20063;-81
2023/12/09 07:28:29;;;;;;;21.20;8.25;;;7.60;99.90;;;;;;5092897;27;20642;-81
2023/12/09 07:30:55;;;;;;;22.95;8.63;;;7.60;99.90;;;;;;5092676;27;20070;-80
2023/12/09 07:33:21;;;;;;;21.25;8.52;;;7.60;99.90;;;;;;5110571;27;20077;-80
2023/12/09 07:35:47;;;;;;;22.10;7.82;;;7.60;99.90;;;;;;5112707;27;20127;-81
2023/12/09 07:38:13;;;;;;;19.20;8.73;;;7.50;99.90;;;;;;5091752;28;20443;-81
2023/12/09 07:40:39;;;;;;;25.85;8.85;;;7.60;99.90;;;;;;5085690;27;20489;-81
2023/12/09 07:43:04;;;;;;;23.85;8.25;;;7.50;99.90;;;;;;5095565;28;20044;-80
2023/12/09 07:45:30;;;;;;;23.15;8.23;;;7.50;99.90;;;;;;5108304;27;20180;-81
2023/12/09 07:47:56;;;;;;;17.70;7.85;;;7.50;99.90;;;;;;5114972;27;20039;-81
2023/12/09 07:50:22;;;;;;;21.73;7.90;;;7.50;99.90;;;;;;5119439;27;20047;-80
2023/12/09 07:52:48;;;;;;;32.05;8.75;;;7.50;99.90;;;;;;5114626;27;20046;-81
2023/12/09 07:55:14;;;;;;;23.55;8.40;;;7.40;99.90;;;;;;5107803;27;20743;-81
2023/12/09 07:57:40;;;;;;;27.95;8.82;;;7.40;99.90;;;;;;5098378;28;20040;-81
2023/12/09 08:00:07;;;;;;;22.80;8.27;;;7.50;99.90;;;;;;5118036;27;20047;-81
2023/12/09 08:02:34;;;;;;;24.00;8.45;;;7.50;99.90;;;;;;5107420;27;20406;-76
2023/12/09 08:04:59;;;;;;;21.80;8.40;;;7.40;99.90;;;;;;5115548;27;20131;-81
2023/12/09 08:07:25;;;;;;;19.33;8.00;;;7.40;99.90;;;;;;5100808;27;20192;-81
2023/12/09 08:09:51;;;;;;;17.23;7.00;;;7.40;99.90;;;;;;5119744;27;21465;-81
2023/12/09 08:12:16;;;;;;;21.58;8.82;;;7.40;99.90;;;;;;5102320;27;20051;-80
2023/12/09 08:14:42;;;;;;;23.08;8.45;;;7.40;99.90;;;;;;5117264;27;20051;-80
2023/12/09 08:17:08;;;;;;;25.65;8.50;;;7.40;99.90;;;;;;5100540;27;20518;-80
2023/12/09 08:19:33;;;;;;;24.67;7.63;;;7.40;99.90;;;;;;5101417;27;20034;-81
2023/12/09 08:21:59;;;;;;;18.83;7.38;;;7.40;99.90;;;;;;5116181;27;20047;-81
2023/12/09 08:24:25;;;;;;;22.75;8.00;;;7.40;99.90;;;;;;5094453;27;20097;-81
2023/12/09 08:26:51;;;;;;;31.23;8.38;;;7.40;99.90;;;;;;5075625;28;20363;-80
2023/12/09 08:29:17;;;;;;;27.13;7.90;;;7.40;99.90;;;;;;5089672;28;20043;-75
2023/12/09 08:31:46;;;;;;;16.50;6.20;;;7.40;99.90;;;;;;5105384;27;20113;-76
2023/12/09 08:34:13;;;;;;;16.30;6.55;;;7.40;99.90;;;;;;5090222;27;20071;-78
2023/12/09 08:36:38;;;;;;;18.05;7.25;;;7.40;99.90;;;;;;5104464;28;20052;-78
2023/12/09 08:39:04;;;;;;;20.08;7.07;;;7.40;99.90;;;;;;5103210;27;20107;-77
2023/12/09 08:41:30;;;;;;;16.35;7.00;;;7.40;99.90;;;;;;5055919;28;20122;-77
2023/12/09 08:43:56;;;;;;;22.73;7.57;;;7.50;99.90;;;;;;5104685;27;20089;-77
2023/12/09 08:46:22;;;;;;;26.17;7.18;;;7.40;99.90;;;;;;5101833;27;20155;-78
2023/12/09 08:48:48;;;;;;;19.60;7.03;;;7.40;99.90;;;;;;5103206;27;20097;-78
2023/12/09 08:51:14;;;;;;;22.15;6.78;;;7.50;99.90;;;;;;5085396;28;20055;-78
2023/12/09 08:53:40;;;;;;;20.65;6.10;;;7.40;99.90;;;;;;5103393;28;20059;-77
2023/12/09 08:56:07;;;;;;;18.92;6.10;;;7.50;99.90;;;;;;5104834;27;20063;-77
2023/12/09 08:58:33;;;;;;;19.85;6.20;;;7.40;99.90;;;;;;5069504;28;20403;-77
2023/12/09 09:00:59;;;;;;;17.65;6.13;;;7.50;99.90;;;;;;5089014;28;20063;-78
2023/12/09 09:03:24;;;;;;;28.73;6.40;;;7.40;99.90;;;;;;5086361;28;20031;-77
2023/12/09 09:05:50;;;;;;;22.17;6.25;;;7.40;99.90;;;;;;5074080;28;20127;-77
2023/12/09 09:08:16;;;;;;;20.48;6.10;;;7.40;99.90;;;;;;5102596;28;20483;-78
2023/12/09 09:10:42;;;;;;;20.60;5.88;;;7.40;99.90;;;;;;5087961;28;20096;-80
2023/12/09 09:13:07;;;;;;;16.25;5.80;;;7.50;99.90;;;;;;5086484;27;20122;-80
2023/12/09 09:15:33;;;;;;;20.08;5.93;;;7.50;99.90;;;;;;5105814;28;20180;-80
2023/12/09 09:17:59;;;;;;;16.35;5.50;;;7.50;99.90;;;;;;5087318;28;20036;-78
2023/12/09 09:20:25;;;;;;;17.70;5.63;;;7.50;99.90;;;;;;5088019;28;20035;-77
2023/12/09 09:22:50;;;;;;;16.73;5.45;;;7.50;99.90;;;;;;5086591;28;20115;-77
2023/12/09 09:25:16;;;;;;;25.55;5.93;;;7.50;99.90;;;;;;5101026;28;20063;-77
2023/12/09 09:27:41;;;;;;;18.00;5.45;;;7.50;99.90;;;;;;5092370;28;20499;-77
2023/12/09 09:30:08;;;;;;;19.45;5.30;;;7.50;99.90;;;;;;5108161;28;20050;-76
2023/12/09 09:32:33;;;;;;;15.38;5.30;;;7.50;99.90;;;;;;5107733;28;20127;-76
2023/12/09 09:34:59;;;;;;;16.20;4.85;;;7.50;99.90;;;;;;5090731;28;20521;-80
2023/12/09 09:37:25;;;;;;;14.57;4.03;;;7.60;99.90;;;;;;5104488;28;20772;-77
2023/12/09 09:39:51;;;;;;;22.00;4.93;;;7.60;99.90;;;;;;5107263;28;20049;-76
2023/12/09 09:42:25;;;;;;;13.38;4.40;;;7.60;99.90;;;;;;5092168;28;20050;-76
2023/12/09 09:45:08;;;;;;;16.65;4.50;;;7.60;99.90;;;;;;5109317;28;20052;-76
2023/12/09 09:47:37;;;;;;;18.77;4.85;;;7.60;99.90;;;;;;5109450;28;20075;-76
2023/12/09 09:50:10;;;;;;;19.92;4.55;;;7.70;99.90;;;;;;5104976;28;20048;-76
2023/12/09 09:52:37;;;;;;;13.20;4.65;;;7.70;99.90;;;;;;5106896;28;20047;-76
2023/12/09 09:55:06;;;;;;;17.58;4.43;;;7.70;99.90;;;;;;5105742;28;20055;-76
2023/12/09 09:57:33;;;;;;;17.45;4.03;;;7.70;99.90;;;;;;5091194;28;20103;-76
2023/12/09 09:59:59;;;;;;;16.65;4.45;;;7.70;99.90;;;;;;5087052;28;20089;-76
2023/12/09 10:02:26;;;;;;;9.23;3.45;;;7.70;99.90;;;;;;5092922;28;20149;-77
2023/12/09 10:04:52;;;;;;;17.13;4.10;;;7.70;99.90;;;;;;5086411;28;20482;-76
2023/12/09 10:07:19;;;;;;;15.90;4.10;;;7.70;99.90;;;;;;5099708;28;20505;-76
2023/12/09 10:09:45;;;;;;;17.67;4.28;;;7.70;99.90;;;;;;5092156;28;20055;-76
2023/12/09 10:12:10;;;;;;;12.07;3.42;;;7.70;99.90;;;;;;5092606;28;20047;-77
2023/12/09 10:14:36;;;;;;;17.15;4.10;;;7.70;99.90;;;;;;5089073;28;20472;-77
2023/12/09 10:17:03;;;;;;;13.13;3.95;;;7.70;99.90;;;;;;5091377;28;20058;-77
2023/12/09 10:19:28;;;;;;;11.35;3.03;;;7.80;99.90;;;;;;5106904;28;20433;-77
2023/12/09 10:21:54;;;;;;;15.32;4.28;;;7.70;99.90;;;;;;5092287;28;20036;-78
2023/12/09 10:24:20;;;;;;;17.55;3.90;;;7.70;99.90;;;;;;5099852;28;20177;-78
2023/12/09 10:26:46;;;;;;;13.23;3.85;;;7.70;99.90;;;;;;5105852;28;20055;-78
2023/12/09 10:29:12;;;;;;;11.10;3.40;;;7.80;99.90;;;;;;5105394;27;20032;-78
2023/12/09 10:31:38;;;;;;;12.40;3.20;;;7.80;99.90;;;;;;5109736;27;20067;-78
2023/12/09 10:34:04;;;;;;;15.80;3.50;;;7.80;99.90;;;;;;5082571;27;20545;-81
2023/12/09 10:36:30;;;;;;;18.17;4.18;;;7.80;99.90;;;;;;5094816;28;20048;-80
2023/12/09 10:38:56;;;;;;;16.92;3.65;;;7.90;99.90;;;;;;5092094;28;20032;-82
2023/12/09 10:41:25;;;;;;;15.27;3.35;;;7.90;99.90;;;;;;5092439;28;20115;-80
2023/12/09 10:43:53;;;;;;;10.95;3.08;;;8.00;99.90;;;;;;5106475;27;20039;-80
2023/12/09 10:46:19;;;;;;;13.13;3.30;;;8.00;99.90;;;;;;5113435;27;20044;-80
2023/12/09 10:48:45;;;;;;;12.25;3.70;;;8.00;99.90;;;;;;5106819;27;20085;-80
2023/12/09 10:51:11;;;;;;;11.15;2.85;;;8.10;99.90;;;;;;5074129;28;20114;-80
2023/12/09 10:53:37;;;;;;;10.18;2.95;;;8.10;99.90;;;;;;5111159;27;20471;-80
2023/12/09 10:56:03;;;;;;;16.15;3.88;;;8.20;99.90;;;;;;5093553;28;20036;-80
2023/12/09 10:58:30;;;;;;;10.90;2.97;;;8.20;99.90;;;;;;5096289;28;20069;-81
2023/12/09 11:00:56;;;;;;;;;;;8.20;99.90;;;;;;5090475;27;20126;-80
2023/12/09 11:03:24;;;;;;;13.88;3.38;;;8.20;99.90;;;;;;5107769;27;19920;-79
2023/12/09 11:05:51;;;;;;;8.90;2.35;;;8.20;99.90;;;;;;5083368;28;20044;-79
2023/12/09 11:08:18;;;;;;;8.98;2.60;;;8.20;99.90;;;;;;5085957;28;20117;-80
2023/12/09 11:10:45;;;;;;;10.95;2.88;;;8.20;99.90;;;;;;5110216;27;20051;-79
2023/12/09 11:13:11;;;;;;;;;;;8.20;99.90;;;;;;5088654;27;20438;-78
2023/12/09 11:15:37;;;;;;;12.27;3.75;;;8.20;99.90;;;;;;5107960;27;19944;-79
2023/12/09 11:18:10;;;;;;;10.18;3.25;;;8.20;99.90;;;;;;5058913;28;20051;-79
2023/12/09 11:20:40;;;;;;;8.68;2.55;;;8.20;99.90;;;;;;5088472;28;20036;-79
2023/12/09 11:23:11;;;;;;;8.60;2.60;;;8.20;99.90;;;;;;5106603;27;20045;-79
2023/12/09 11:25:43;;;;;;;12.82;2.97;;;8.30;99.90;;;;;;5089302;27;20039;-77
2023/12/09 11:28:12;;;;;;;11.55;3.13;;;8.30;99.90;;;;;;5090797;28;20050;-78
2023/12/09 11:30:44;;;;;;;13.02;2.72;;;8.30;99.90;;;;;;5103054;27;20062;-78
2023/12/09 11:33:10;;;;;;;12.13;2.72;;;8.20;99.90;;;;;;5092274;28;20055;-79
2023/12/09 11:35:36;;;;;;;;;;;8.20;99.90;;;;;;5114100;27;20040;-78
2023/12/09 11:38:05;;;;;;;12.20;2.95;;;8.20;99.90;;;;;;5093800;28;19945;-78
2023/12/09 11:40:31;;;;;;;9.30;2.90;;;8.20;99.90;;;;;;5110363;27;20050;-78
2023/12/09 11:42:58;;;;;;;10.68;3.38;;;8.20;99.90;;;;;;5120077;27;20403;-78
2023/12/09 11:45:24;;;;;;;9.65;2.97;;;8.20;99.90;;;;;;5106567;28;20035;-77
2023/12/09 11:47:50;;;;;;;9.38;2.75;;;8.20;99.90;;;;;;5095438;27;20034;-78
2023/12/09 11:50:17;;;;;;;12.18;3.13;;;8.20;99.90;;;;;;5123819;27;20403;-78
2023/12/09 11:52:44;;;;;;;9.95;2.60;;;8.30;99.90;;;;;;5104466;28;20075;-78
2023/12/09 11:55:11;;;;;;;9.02;2.50;;;8.30;99.90;;;;;;5116961;27;20038;-77
2023/12/09 11:57:38;;;;;;;9.70;2.75;;;8.30;99.90;;;;;;5117442;27;20032;-77
2023/12/09 12:00:06;;;;;;;13.27;3.10;;;8.30;99.90;;;;;;5095201;27;20039;-77
2023/12/09 12:02:33;;;;;;;9.30;2.90;;;8.30;99.90;;;;;;5113314;27;20132;-77
2023/12/09 12:04:59;;;;;;;9.93;2.67;;;8.30;99.90;;;;;;5103166;28;20035;-77
2023/12/09 12:07:24;;;;;;;12.82;2.97;;;8.30;99.90;;;;;;5110532;27;20112;-77
2023/12/09 12:09:51;;;;;;;12.45;3.10;;;8.40;99.90;;;;;;5114610;27;20138;-77
2023/12/09 12:12:18;;;;;;;8.88;2.30;;;8.40;99.90;;;;;;5092702;28;20039;-77
2023/12/09 12:14:46;;;;;;;7.65;2.60;;;8.40;99.90;;;;;;5097902;28;20048;-77
2023/12/09 12:17:11;;;;;;;10.52;2.60;;;8.40;99.90;;;;;;5112589;27;20592;-77
2023/12/09 12:19:39;;;;;;;11.00;2.97;;;8.40;99.90;;;;;;5087634;27;20541;-77
2023/12/09 12:22:05;;;;;;;11.70;2.78;;;8.40;99.90;;;;;;5125203;27;20059;-77
2023/12/09 12:24:41;;;;;;;7.45;2.30;;;8.40;99.90;;;;;;5123025;27;20520;-77
2023/12/09 12:27:07;;;;;;;9.30;2.50;;;8.40;99.90;;;;;;5110774;27;20518;-77
2023/12/09 12:29:33;;;;;;;9.98;2.15;;;8.40;99.90;;;;;;5117593;27;20072;-77
2023/12/09 12:31:59;;;;;;;7.82;2.15;;;8.40;99.90;;;;;;5127860;27;20585;-77
2023/12/09 12:34:26;;;;;;;8.32;2.60;;;8.40;99.90;;;;;;5103028;28;20086;-77
2023/12/09 12:36:52;;;;;;;9.63;2.60;;;8.40;99.90;;;;;;5113005;27;20118;-77
2023/12/09 12:39:18;;;;;;;11.30;2.88;;;8.40;99.90;;;;;;5124478;27;20460;-76
2023/12/09 12:41:44;;;;;;;5.13;2.10;;;8.40;99.90;;;;;;5093056;27;20052;-76